createdAt,value
2018-11-14T00:00:51.451Z,3.30
2018-11-14T00:03:19.622Z,3.00
2018-11-14T00:05:47.666Z,3.50
2018-11-14T00:08:15.755Z,3.70
2018-11-14T00:10:43.848Z,3.40
2018-11-14T00:13:11.925Z,3.40
2018-11-14T00:15:39.984Z,2.73
2018-11-14T00:18:08.157Z,3.40
2018-11-14T00:20:36.201Z,3.10
2018-11-14T00:23:04.425Z,3.40
2018-11-14T00:25:32.476Z,3.50
2018-11-14T00:28:01.122Z,3.43
2018-11-14T00:30:28.630Z,3.10
2018-11-14T00:32:56.693Z,3.13
2018-11-14T00:35:24.749Z,3.57
2018-11-14T00:37:52.833Z,3.70
2018-11-14T00:40:21.339Z,3.13
2018-11-14T00:42:49.713Z,3.30
2018-11-14T00:45:19.361Z,3.57
2018-11-14T00:47:48.377Z,3.20
2018-11-14T00:50:17.297Z,3.87
2018-11-14T00:52:45.873Z,4.00
2018-11-14T00:55:17.239Z,2.87
2018-11-14T00:57:46.437Z,3.27
2018-11-14T01:00:16.439Z,3.70
2018-11-14T01:02:44.927Z,3.53
2018-11-14T01:05:13.831Z,3.80
2018-11-14T01:07:41.873Z,3.77
2018-11-14T01:10:11.443Z,3.37
2018-11-14T01:12:39.867Z,3.33
2018-11-14T01:15:10.003Z,3.53
2018-11-14T01:17:38.603Z,3.80
2018-11-14T01:20:07.907Z,4.37
2018-11-14T01:22:36.000Z,3.97
2018-11-14T01:25:04.027Z,4.47
2018-11-14T01:27:32.061Z,3.43
2018-11-14T01:30:00.229Z,3.03
2018-11-14T01:32:28.271Z,3.83
2018-11-14T01:34:56.295Z,3.70
2018-11-14T01:37:24.548Z,4.20
2018-11-14T01:39:52.641Z,3.70
2018-11-14T01:42:20.696Z,4.43
2018-11-14T01:44:48.799Z,4.63
2018-11-14T01:47:16.864Z,4.33
2018-11-14T01:49:44.933Z,3.83
2018-11-14T01:52:13.013Z,4.20
2018-11-14T01:54:41.112Z,4.13
2018-11-14T01:57:09.203Z,4.00
2018-11-14T01:59:37.277Z,4.27
2018-11-14T02:02:05.313Z,4.13
2018-11-14T02:04:33.414Z,4.13
2018-11-14T02:07:01.433Z,4.03
2018-11-14T02:09:29.547Z,3.60
2018-11-14T02:11:57.636Z,4.00
2018-11-14T02:14:36.583Z,3.43
2018-11-14T02:17:04.981Z,4.73
2018-11-14T02:19:33.089Z,4.33
2018-11-14T02:22:01.469Z,5.07
2018-11-14T02:24:29.688Z,4.43
2018-11-14T02:26:57.737Z,5.13
2018-11-14T02:29:25.797Z,5.20
2018-11-14T02:31:53.851Z,4.33
2018-11-14T02:34:21.916Z,3.90
2018-11-14T02:36:50.360Z,4.27
2018-11-14T02:39:18.380Z,4.97
2018-11-14T02:41:46.436Z,5.17
2018-11-14T02:44:14.534Z,5.53
2018-11-14T02:46:42.629Z,4.60
2018-11-14T02:49:10.767Z,4.33
2018-11-14T02:51:38.867Z,4.67
2018-11-14T02:54:06.899Z,4.60
2018-11-14T02:56:34.996Z,3.93
2018-11-14T02:59:03.053Z,4.97
2018-11-14T03:01:31.135Z,5.00
2018-11-14T03:03:59.269Z,5.37
2018-11-14T03:06:27.371Z,4.80
2018-11-14T03:08:55.459Z,4.53
2018-11-14T03:11:23.549Z,5.13
2018-11-14T03:13:51.601Z,4.80
2018-11-14T03:16:19.768Z,4.17
2018-11-14T03:18:47.828Z,5.00
2018-11-14T03:21:15.922Z,4.00
2018-11-14T03:23:44.001Z,6.03
2018-11-14T03:26:12.073Z,5.07
2018-11-14T03:28:40.171Z,4.17
2018-11-14T03:31:08.236Z,5.70
2018-11-14T03:33:36.252Z,4.60
2018-11-14T03:36:09.853Z,5.83
2018-11-14T03:38:38.021Z,4.67
2018-11-14T03:41:06.136Z,5.50
2018-11-14T03:43:34.259Z,6.27
2018-11-14T03:46:02.396Z,5.57
2018-11-14T03:48:30.461Z,4.87
2018-11-14T03:50:58.517Z,5.90
2018-11-14T03:53:26.582Z,5.73
2018-11-14T03:55:54.692Z,5.57
2018-11-14T03:58:22.832Z,6.00
2018-11-14T04:00:50.872Z,5.67
2018-11-14T04:03:19.006Z,5.80
2018-11-14T04:05:47.098Z,5.17
2018-11-14T04:08:15.143Z,5.27
2018-11-14T04:10:43.171Z,5.13
2018-11-14T04:13:11.340Z,5.67
2018-11-14T04:15:39.445Z,5.67
2018-11-14T04:18:07.506Z,5.33
2018-11-14T04:20:35.609Z,5.90
2018-11-14T04:23:03.652Z,5.77
2018-11-14T04:25:31.770Z,5.47
2018-11-14T04:27:59.808Z,6.20
2018-11-14T04:30:27.871Z,6.10
2018-11-14T04:32:55.977Z,6.03
2018-11-14T04:35:24.019Z,5.80
2018-11-14T04:37:52.121Z,5.63
2018-11-14T04:40:21.497Z,5.80
2018-11-14T04:42:49.613Z,6.17
2018-11-14T04:45:19.903Z,6.23
2018-11-14T04:47:48.091Z,6.20
2018-11-14T04:50:18.014Z,8.23
2018-11-14T04:52:47.022Z,6.73
2018-11-14T04:55:16.385Z,6.83
2018-11-14T04:57:44.877Z,6.43
2018-11-14T05:00:13.628Z,5.90
2018-11-14T05:02:42.673Z,6.07
2018-11-14T05:05:12.860Z,6.13
2018-11-14T05:07:41.044Z,6.33
2018-11-14T05:10:11.332Z,7.23
2018-11-14T05:12:39.620Z,6.10
2018-11-14T05:15:08.874Z,7.03
2018-11-14T05:17:36.952Z,6.97
2018-11-14T05:20:05.517Z,7.30
2018-11-14T05:22:33.575Z,6.10
2018-11-14T05:25:01.690Z,7.20
2018-11-14T05:27:29.719Z,5.70
2018-11-14T05:29:57.790Z,7.03
2018-11-14T05:32:25.859Z,6.80
2018-11-14T05:34:53.940Z,6.83
2018-11-14T05:37:22.093Z,7.20
2018-11-14T05:39:50.273Z,7.10
2018-11-14T05:42:18.229Z,6.53
2018-11-14T05:44:46.336Z,6.67
2018-11-14T05:47:14.396Z,6.57
2018-11-14T05:49:42.495Z,7.47
2018-11-14T05:52:10.533Z,7.13
2018-11-14T05:54:39.013Z,7.27
2018-11-14T05:57:07.299Z,6.70
2018-11-14T05:59:35.368Z,6.27
2018-11-14T06:02:03.523Z,7.03
2018-11-14T06:04:31.624Z,6.50
2018-11-14T06:06:59.746Z,7.27
2018-11-14T06:09:27.764Z,6.90
2018-11-14T06:11:55.834Z,7.73
2018-11-14T06:14:23.922Z,6.90
2018-11-14T06:16:51.984Z,8.33
2018-11-14T06:19:20.130Z,7.03
2018-11-14T06:21:48.252Z,6.73
2018-11-14T06:24:16.316Z,7.27
2018-11-14T06:26:44.410Z,7.20
2018-11-14T06:29:12.574Z,7.63
2018-11-14T06:31:40.605Z,7.60
2018-11-14T06:34:09.068Z,7.50
2018-11-14T06:36:37.244Z,7.70
2018-11-14T06:39:08.361Z,7.30
2018-11-14T06:41:36.581Z,7.50
2018-11-14T06:44:04.784Z,7.47
2018-11-14T06:46:32.830Z,8.23
2018-11-14T06:49:01.373Z,7.73
2018-11-14T06:51:30.121Z,7.80
2018-11-14T06:53:58.595Z,6.60
2018-11-14T06:56:26.839Z,6.70
2018-11-14T06:58:55.066Z,8.07
2018-11-14T07:01:23.122Z,8.70
2018-11-14T07:03:51.300Z,7.67
2018-11-14T07:06:19.452Z,7.90
2018-11-14T07:08:47.436Z,6.80
2018-11-14T07:11:15.537Z,7.83
2018-11-14T07:13:43.592Z,7.50
2018-11-14T07:16:11.660Z,7.63
2018-11-14T07:18:39.695Z,8.37
2018-11-14T07:21:07.867Z,7.83
2018-11-14T07:23:36.134Z,7.23
2018-11-14T07:26:04.171Z,8.00
2018-11-14T07:28:32.244Z,6.33
2018-11-14T07:31:00.360Z,6.90
2018-11-14T07:33:33.401Z,7.40
2018-11-14T07:36:01.456Z,6.43
2018-11-14T07:38:39.182Z,7.93
2018-11-14T07:41:09.574Z,7.07
2018-11-14T07:43:46.587Z,8.10
2018-11-14T07:46:15.244Z,7.27
2018-11-14T07:48:44.036Z,7.47
2018-11-14T07:51:12.104Z,7.13
2018-11-14T07:53:40.188Z,7.10
2018-11-14T07:56:09.320Z,6.87
2018-11-14T07:58:37.335Z,7.10
2018-11-14T08:01:05.862Z,6.80
2018-11-14T08:03:33.941Z,6.90
2018-11-14T08:06:01.983Z,6.57
2018-11-14T08:08:30.158Z,6.83
2018-11-14T08:10:58.311Z,7.57
2018-11-14T08:13:27.656Z,6.53
2018-11-14T08:15:57.051Z,6.83
2018-11-14T08:18:25.519Z,7.77
2018-11-14T08:20:53.689Z,7.40
2018-11-14T08:23:21.762Z,7.03
2018-11-14T08:25:49.884Z,6.80
2018-11-14T08:28:17.987Z,7.53
2018-11-14T08:30:47.323Z,7.43
2018-11-14T08:33:15.425Z,8.33
2018-11-14T08:35:43.548Z,7.47
2018-11-14T08:38:11.638Z,7.77
2018-11-14T08:40:39.765Z,6.77
2018-11-14T08:43:08.123Z,7.47
2018-11-14T08:45:36.260Z,7.20
2018-11-14T08:48:04.742Z,6.83
2018-11-14T08:50:32.818Z,7.40
2018-11-14T08:53:00.878Z,7.13
2018-11-14T08:55:29.107Z,7.47
2018-11-14T08:57:57.295Z,7.70
2018-11-14T09:00:26.545Z,7.03
2018-11-14T09:02:54.809Z,7.40
2018-11-14T09:05:22.950Z,6.67
2018-11-14T09:07:51.444Z,7.30
2018-11-14T09:10:24.721Z,6.73
2018-11-14T09:12:52.861Z,6.67
2018-11-14T09:15:22.150Z,8.67
2018-11-14T09:17:50.426Z,7.40
2018-11-14T09:20:27.177Z,7.67
2018-11-14T09:22:55.281Z,7.30
2018-11-14T09:25:28.953Z,7.00
2018-11-14T09:27:57.569Z,7.23
2018-11-14T09:30:26.391Z,6.57
2018-11-14T09:32:54.574Z,7.27
2018-11-14T09:35:23.551Z,7.47
2018-11-14T09:37:52.211Z,7.50
2018-11-14T09:40:21.704Z,7.23
2018-11-14T09:42:49.803Z,6.50
2018-11-14T09:45:21.120Z,6.33
2018-11-14T09:47:49.229Z,7.07
2018-11-14T09:50:21.470Z,6.87
2018-11-14T09:52:53.024Z,6.97
2018-11-14T09:55:21.187Z,6.73
2018-11-14T09:57:49.259Z,6.70
2018-11-14T10:00:19.689Z,6.47
2018-11-14T10:02:49.179Z,6.20
2018-11-14T10:05:18.524Z,7.03
2018-11-14T10:07:46.794Z,7.27
2018-11-14T10:10:17.004Z,6.07
2018-11-14T10:12:45.067Z,5.67
2018-11-14T10:15:15.192Z,5.67
2018-11-14T10:17:43.999Z,5.10
2018-11-14T10:20:16.303Z,6.17
2018-11-14T10:22:44.733Z,5.93
2018-11-14T10:25:13.521Z,5.00
2018-11-14T10:27:42.508Z,5.67
2018-11-14T10:30:13.779Z,5.30
2018-11-14T10:32:42.765Z,5.23
2018-11-14T10:35:11.437Z,6.23
2018-11-14T10:37:39.928Z,5.77
2018-11-14T10:40:10.661Z,5.60
2018-11-14T10:42:38.789Z,6.60
2018-11-14T10:46:11.229Z,6.20
2018-11-14T10:48:39.277Z,5.60
2018-11-14T10:51:07.425Z,6.00
2018-11-14T10:53:35.424Z,5.57
2018-11-14T10:56:03.617Z,6.10
2018-11-14T10:58:31.759Z,13.33
2018-11-14T11:01:05.371Z,6.33
2018-11-14T11:03:41.632Z,6.57
2018-11-14T11:07:17.825Z,6.00
2018-11-14T11:09:51.371Z,7.50
2018-11-14T11:12:25.020Z,6.57
2018-11-14T11:15:57.100Z,6.30
2018-11-14T11:18:26.621Z,6.50
2018-11-14T11:20:54.823Z,6.03
2018-11-14T11:23:23.224Z,4.90
2018-11-14T11:25:51.276Z,4.90
2018-11-14T11:28:19.557Z,4.90
2018-11-14T11:30:47.786Z,5.33
2018-11-14T11:33:15.878Z,4.67
2018-11-14T11:35:43.965Z,4.43
2018-11-14T11:38:12.040Z,4.67
2018-11-14T11:40:40.220Z,4.80
2018-11-14T11:43:08.356Z,6.13
2018-11-14T11:45:36.664Z,9.53
2018-11-14T11:48:04.793Z,5.93
2018-11-14T11:50:32.908Z,6.20
2018-11-14T11:53:01.533Z,6.53
2018-11-14T11:55:29.668Z,6.00
2018-11-14T11:57:57.918Z,6.33
2018-11-14T12:00:26.256Z,5.97
2018-11-14T12:02:54.113Z,5.37
2018-11-14T12:05:22.248Z,6.90
2018-11-14T12:07:50.269Z,5.93
2018-11-14T12:10:18.504Z,6.87
2018-11-14T12:12:46.587Z,5.93
2018-11-14T12:15:14.913Z,6.43
2018-11-14T12:17:43.376Z,6.27
2018-11-14T12:20:12.915Z,7.23
2018-11-14T12:22:41.525Z,6.07
2018-11-14T12:25:11.516Z,5.60
2018-11-14T12:27:39.657Z,5.97
2018-11-14T12:30:10.272Z,6.07
2018-11-14T12:32:38.380Z,6.27
2018-11-14T12:35:07.778Z,7.40
2018-11-14T12:37:35.896Z,6.90
2018-11-14T12:40:04.004Z,6.33
2018-11-14T12:42:32.095Z,6.30
2018-11-14T12:45:00.322Z,5.03
2018-11-14T12:47:28.359Z,6.53
2018-11-14T12:49:56.711Z,6.40
2018-11-14T12:52:24.889Z,5.70
2018-11-14T12:54:52.905Z,5.57
2018-11-14T12:57:21.018Z,6.00
2018-11-14T12:59:49.246Z,6.03
2018-11-14T13:02:17.314Z,6.93
2018-11-14T13:04:45.375Z,7.27
2018-11-14T13:07:13.580Z,6.00
2018-11-14T13:09:41.661Z,5.63
2018-11-14T13:12:09.738Z,5.97
2018-11-14T13:14:37.883Z,6.43
2018-11-14T13:17:06.040Z,7.20
2018-11-14T13:19:34.119Z,5.93
2018-11-14T13:22:02.403Z,6.30
2018-11-14T13:24:30.488Z,7.30
2018-11-14T13:26:58.524Z,7.10
2018-11-14T13:29:26.695Z,7.77
2018-11-14T13:31:54.828Z,6.73
2018-11-14T13:34:23.030Z,7.70
2018-11-14T13:36:51.173Z,6.67
2018-11-14T13:39:19.223Z,7.23
2018-11-14T13:41:47.301Z,6.97
2018-11-14T13:44:15.480Z,7.77
2018-11-14T13:46:43.525Z,6.40
2018-11-14T13:49:11.792Z,6.67
2018-11-14T13:51:39.724Z,6.73
2018-11-14T13:54:07.873Z,6.53
2018-11-14T13:56:36.072Z,6.07
2018-11-14T13:59:04.286Z,6.83
2018-11-14T14:01:32.397Z,6.23
2018-11-14T14:04:00.509Z,6.40
2018-11-14T14:07:53.327Z,6.10
2018-11-14T14:10:21.381Z,7.23
2018-11-14T14:12:50.781Z,6.77
2018-11-14T14:15:20.193Z,7.00
2018-11-14T14:17:48.771Z,7.30
2018-11-14T14:20:17.646Z,6.83
2018-11-14T14:22:45.747Z,6.83
2018-11-14T14:25:15.078Z,6.13
2018-11-14T14:27:43.209Z,6.57
2018-11-14T14:30:13.777Z,6.03
2018-11-14T14:32:42.719Z,6.43
2018-11-14T14:35:11.771Z,5.73
2018-11-14T14:37:40.140Z,6.30
2018-11-14T14:40:09.927Z,5.73
2018-11-14T14:42:38.093Z,5.80
2018-11-14T14:45:07.741Z,5.00
2018-11-14T14:47:36.081Z,6.67
2018-11-14T14:50:05.239Z,6.43
2018-11-14T14:52:33.384Z,7.00
2018-11-14T14:55:01.448Z,6.47
2018-11-14T14:57:29.613Z,5.90
2018-11-14T14:59:57.729Z,6.90
2018-11-14T15:02:25.895Z,6.40
2018-11-14T15:04:54.054Z,6.37
2018-11-14T15:07:22.433Z,7.27
2018-11-14T15:09:50.526Z,6.37
2018-11-14T15:12:18.646Z,6.90
2018-11-14T15:14:46.802Z,7.07
2018-11-14T15:17:14.899Z,7.17
2018-11-14T15:19:43.012Z,6.40
2018-11-14T15:22:11.153Z,7.67
2018-11-14T15:24:39.201Z,6.27
2018-11-14T15:27:07.518Z,7.97
2018-11-14T15:29:35.467Z,7.27
2018-11-14T15:32:03.499Z,9.40
2018-11-14T15:34:31.848Z,8.77
2018-11-14T15:37:00.957Z,7.97
2018-11-14T15:39:29.203Z,8.20
2018-11-14T15:41:57.345Z,8.87
2018-11-14T15:44:25.388Z,8.47
2018-11-14T15:46:53.505Z,8.37
2018-11-14T15:49:21.553Z,9.00
2018-11-14T15:51:49.756Z,7.80
2018-11-14T15:54:17.979Z,8.77
2018-11-14T15:56:46.097Z,8.43
2018-11-14T15:59:14.171Z,8.80
2018-11-14T16:01:42.242Z,8.97
2018-11-14T16:04:10.512Z,9.17
2018-11-14T16:06:38.651Z,6.87
2018-11-14T16:09:10.145Z,8.60
2018-11-14T16:11:38.209Z,8.60
2018-11-14T16:14:06.272Z,8.87
2018-11-14T16:16:34.750Z,7.97
2018-11-14T16:19:03.890Z,8.13
2018-11-14T16:21:32.002Z,7.83
2018-11-14T16:24:00.163Z,7.83
2018-11-14T16:26:28.268Z,9.23
2018-11-14T16:28:56.474Z,9.40
2018-11-14T16:31:24.540Z,9.37
2018-11-14T16:33:52.609Z,8.50
2018-11-14T16:36:20.635Z,9.57
2018-11-14T16:38:49.658Z,9.87
2018-11-14T16:41:17.729Z,9.87
2018-11-14T16:43:46.015Z,10.83
2018-11-14T16:46:14.073Z,9.90
2018-11-14T16:48:42.237Z,9.87
2018-11-14T16:51:10.333Z,9.63
2018-11-14T16:53:38.408Z,10.47
2018-11-14T16:56:06.567Z,9.13
2018-11-14T16:58:35.664Z,9.23
2018-11-14T17:01:03.777Z,9.50
2018-11-14T17:03:31.939Z,10.23
2018-11-14T17:05:59.984Z,10.27
2018-11-14T17:08:28.193Z,9.77
2018-11-14T17:10:56.328Z,9.77
2018-11-14T17:13:24.449Z,9.67
2018-11-14T17:15:52.493Z,9.13
2018-11-14T17:18:20.527Z,9.53
2018-11-14T17:20:48.654Z,9.17
2018-11-14T17:23:16.720Z,10.13
2018-11-14T17:25:44.908Z,8.33
2018-11-14T17:28:13.038Z,9.60
2018-11-14T17:30:41.128Z,9.10
2018-11-14T17:33:09.367Z,9.23
2018-11-14T17:35:37.359Z,9.27
2018-11-14T17:38:05.687Z,9.13
2018-11-14T17:40:33.818Z,8.20
2018-11-14T17:43:01.992Z,8.40
2018-11-14T17:45:31.008Z,10.33
2018-11-14T17:47:59.574Z,10.20
2018-11-14T17:50:29.222Z,9.37
2018-11-14T17:52:57.903Z,8.47
2018-11-14T17:55:26.632Z,10.50
2018-11-14T17:57:54.761Z,9.27
2018-11-14T18:00:24.177Z,11.00
2018-11-14T18:02:52.426Z,9.47
2018-11-14T18:05:23.772Z,9.97
2018-11-14T18:07:52.523Z,10.73
2018-11-14T18:10:21.779Z,9.40
2018-11-14T18:12:50.766Z,8.70
2018-11-14T18:15:19.032Z,9.47
2018-11-14T18:17:47.720Z,9.30
2018-11-14T18:20:17.218Z,9.73
2018-11-14T18:22:46.132Z,9.30
2018-11-14T18:25:14.583Z,9.53
2018-11-14T18:27:42.790Z,9.87
2018-11-14T18:30:17.402Z,9.73
2018-11-14T18:32:45.932Z,9.23
2018-11-14T18:35:16.265Z,9.17
2018-11-14T18:37:44.983Z,9.93
2018-11-14T18:40:14.512Z,9.83
2018-11-14T18:42:42.686Z,9.40
2018-11-14T18:45:14.773Z,9.37
2018-11-14T18:47:43.910Z,11.30
2018-11-14T18:50:13.730Z,11.07
2018-11-14T18:52:41.979Z,9.93
2018-11-14T18:55:11.665Z,13.83
2018-11-14T19:00:29.576Z,11.37
2018-11-14T19:02:58.101Z,10.87
2018-11-14T19:05:26.308Z,11.20
2018-11-14T19:07:54.508Z,10.93
2018-11-14T19:10:23.991Z,12.73
2018-11-14T19:12:52.559Z,10.60
2018-11-14T19:15:25.907Z,10.60
2018-11-14T19:17:54.191Z,11.00
2018-11-14T19:20:24.669Z,10.23
2018-11-14T19:22:53.284Z,10.90
2018-11-14T19:25:22.824Z,10.00
2018-11-14T19:27:51.073Z,9.20
2018-11-14T19:30:23.363Z,10.10
2018-11-14T19:32:52.274Z,11.10
2018-11-14T19:35:20.347Z,10.67
2018-11-14T19:37:49.457Z,10.23
2018-11-14T19:40:18.604Z,10.93
2018-11-14T19:42:47.731Z,10.37
2018-11-14T19:45:18.705Z,11.07
2018-11-14T19:47:46.812Z,10.80
2018-11-14T19:50:16.107Z,10.83
2018-11-14T19:52:44.525Z,12.07
2018-11-14T19:55:13.960Z,12.03
2018-11-14T19:57:43.069Z,10.57
2018-11-14T20:00:16.287Z,11.47
2018-11-14T20:02:44.386Z,12.30
2018-11-14T20:05:13.567Z,11.57
2018-11-14T20:07:41.664Z,12.50
2018-11-14T20:10:12.392Z,11.73
2018-11-14T20:12:40.457Z,13.63
2018-11-14T20:15:10.256Z,13.03
2018-11-14T20:17:38.530Z,13.07
2018-11-14T20:20:09.003Z,11.43
2018-11-14T20:22:37.149Z,12.33
2018-11-14T20:25:05.804Z,13.67
2018-11-14T20:27:34.233Z,12.17
2018-11-14T20:31:31.596Z,12.63
2018-11-14T20:33:59.655Z,12.33
2018-11-14T20:36:27.728Z,12.70
2018-11-14T20:38:55.817Z,11.70
2018-11-14T20:41:23.997Z,12.20
2018-11-14T20:43:52.037Z,12.83
2018-11-14T20:46:20.139Z,12.07
2018-11-14T20:48:48.251Z,11.23
2018-11-14T20:51:16.348Z,10.37
2018-11-14T20:53:44.561Z,11.67
2018-11-14T20:56:12.630Z,11.13
2018-11-14T20:58:40.650Z,10.93
2018-11-14T21:01:09.808Z,11.70
2018-11-14T21:03:41.104Z,12.20
2018-11-14T21:06:09.437Z,11.67
2018-11-14T21:08:37.437Z,12.90
2018-11-14T21:11:05.901Z,12.23
2018-11-14T21:13:34.929Z,12.70
2018-11-14T21:16:03.024Z,12.03
2018-11-14T21:18:32.199Z,13.37
2018-11-14T21:21:00.281Z,13.60
2018-11-14T21:23:28.445Z,12.87
2018-11-14T21:25:56.501Z,12.37
2018-11-14T21:28:24.579Z,10.93
2018-11-14T21:30:53.757Z,12.10
2018-11-14T21:33:21.838Z,12.90
2018-11-14T21:35:49.915Z,12.10
2018-11-14T21:38:18.043Z,12.03
2018-11-14T21:40:46.050Z,12.60
2018-11-14T21:43:14.286Z,11.50
2018-11-14T21:45:42.331Z,11.03
2018-11-14T21:48:12.987Z,11.33
2018-11-14T21:50:41.149Z,11.57
2018-11-14T21:53:09.250Z,10.50
2018-11-14T21:58:10.680Z,10.97
2018-11-14T22:00:39.771Z,10.43
2018-11-14T22:03:08.288Z,10.43
2018-11-14T22:05:36.646Z,11.60
2018-11-14T22:08:04.780Z,10.77
2018-11-14T22:10:32.957Z,11.87
2018-11-14T22:13:01.064Z,10.73
2018-11-14T22:15:29.856Z,10.10
2018-11-14T22:17:57.923Z,9.57
2018-11-14T22:20:26.801Z,11.57
2018-11-14T22:22:55.898Z,10.30
2018-11-14T22:25:25.006Z,9.90
2018-11-14T22:27:53.275Z,9.77
2018-11-14T22:30:23.813Z,9.93
2018-11-14T22:32:51.875Z,10.17
2018-11-14T22:35:21.246Z,10.37
2018-11-14T22:37:49.461Z,9.27
2018-11-14T22:40:18.872Z,9.20
2018-11-14T22:42:47.192Z,9.70
2018-11-14T22:45:17.124Z,8.07
2018-11-14T22:47:45.600Z,9.50
2018-11-14T22:50:14.940Z,8.63
2018-11-14T22:52:44.547Z,8.00
2018-11-14T22:55:13.853Z,8.63
2018-11-14T22:57:42.580Z,8.80
2018-11-14T23:00:22.067Z,9.53
2018-11-14T23:02:51.454Z,8.30
2018-11-14T23:05:19.698Z,8.03
2018-11-14T23:07:49.181Z,9.30
2018-11-14T23:10:17.756Z,8.20
2018-11-14T23:12:46.161Z,8.07
2018-11-14T23:15:14.184Z,7.87
2018-11-14T23:17:42.232Z,8.20
2018-11-14T23:20:12.380Z,8.33
2018-11-14T23:22:41.276Z,8.10
2018-11-14T23:25:09.976Z,7.23
2018-11-14T23:27:38.745Z,7.63
2018-11-14T23:30:08.168Z,7.30
2018-11-14T23:32:36.194Z,8.33
2018-11-14T23:35:09.692Z,8.27
2018-11-14T23:37:37.774Z,7.60
2018-11-14T23:40:06.485Z,7.63
2018-11-14T23:42:34.532Z,6.80
2018-11-14T23:45:02.668Z,6.07
2018-11-14T23:47:30.731Z,7.87
2018-11-14T23:49:58.776Z,6.50
2018-11-14T23:52:26.891Z,7.70
2018-11-14T23:54:54.895Z,7.07
2018-11-14T23:57:22.989Z,6.70
2018-11-14T23:59:51.053Z,6.77
